createdAt,value
2023-05-14T00:00:22.318Z,61.75
2023-05-14T00:01:22.175Z,62.33
2023-05-14T00:02:22.205Z,62.84
2023-05-14T00:03:22.307Z,63.14
2023-05-14T00:04:22.310Z,63.18
2023-05-14T00:05:22.217Z,63.19
2023-05-14T00:06:22.244Z,63.19
2023-05-14T00:07:22.256Z,62.65
2023-05-14T00:08:22.219Z,62.47
2023-05-14T00:09:22.264Z,62.17
2023-05-14T00:10:22.387Z,61.60
2023-05-14T00:11:22.350Z,61.42
2023-05-14T00:12:22.401Z,61.24
2023-05-14T00:13:22.489Z,61.42
2023-05-14T00:14:22.467Z,61.55
2023-05-14T00:15:22.407Z,61.47
2023-05-14T00:16:22.527Z,61.54
2023-05-14T00:17:22.553Z,61.54
2023-05-14T00:18:22.597Z,62.29
2023-05-14T00:19:22.660Z,62.48
2023-05-14T00:20:23.451Z,62.20
2023-05-14T00:21:22.726Z,62.02
2023-05-14T00:22:22.722Z,61.87
2023-05-14T00:23:22.742Z,61.55
2023-05-14T00:24:23.091Z,61.52
2023-05-14T00:25:22.739Z,61.66
2023-05-14T00:26:22.750Z,61.75
2023-05-14T00:27:23.672Z,62.03
2023-05-14T00:28:22.753Z,61.37
2023-05-14T00:29:22.819Z,61.61
2023-05-14T00:30:22.981Z,62.28
2023-05-14T00:31:22.921Z,62.46
2023-05-14T00:32:23.087Z,63.09
2023-05-14T00:33:22.952Z,63.26
2023-05-14T00:34:22.955Z,63.64
2023-05-14T00:35:23.034Z,63.80
2023-05-14T00:36:23.039Z,63.81
2023-05-14T00:37:23.071Z,63.83
2023-05-14T00:38:23.178Z,63.63
2023-05-14T00:39:23.141Z,63.56
2023-05-14T00:40:23.412Z,63.39
2023-05-14T00:41:23.215Z,62.96
2023-05-14T00:42:23.160Z,62.62
2023-05-14T00:43:23.183Z,62.49
2023-05-14T00:44:23.277Z,62.42
2023-05-14T00:45:23.248Z,61.95
2023-05-14T00:46:23.464Z,62.07
2023-05-14T00:47:23.386Z,61.95
2023-05-14T00:48:23.416Z,62.07
2023-05-14T00:49:23.419Z,61.91
2023-05-14T00:50:23.904Z,61.95
2023-05-14T00:51:23.480Z,61.85
2023-05-14T00:52:23.502Z,62.04
2023-05-14T00:53:23.556Z,62.61
2023-05-14T00:54:23.658Z,62.55
2023-05-14T00:55:23.606Z,62.31
2023-05-14T00:56:23.622Z,62.19
2023-05-14T00:57:23.652Z,62.53
2023-05-14T00:58:23.630Z,62.48
2023-05-14T00:59:23.694Z,62.89
2023-05-14T01:00:23.935Z,62.89
2023-05-14T01:01:23.766Z,63.21
2023-05-14T01:02:23.763Z,62.78
2023-05-14T01:03:23.810Z,62.59
2023-05-14T01:04:23.825Z,62.33
2023-05-14T01:05:23.788Z,62.12
2023-05-14T01:06:23.827Z,61.90
2023-05-14T01:07:23.845Z,61.89
2023-05-14T01:08:23.856Z,61.47
2023-05-14T01:09:23.878Z,61.70
2023-05-14T01:10:24.127Z,61.88
2023-05-14T01:11:23.879Z,62.04
2023-05-14T01:12:23.900Z,62.02
2023-05-14T01:13:23.874Z,62.26
2023-05-14T01:14:23.920Z,62.13
2023-05-14T01:15:24.009Z,61.88
2023-05-14T01:16:23.970Z,62.11
2023-05-14T01:17:24.292Z,62.16
2023-05-14T01:18:24.068Z,62.18
2023-05-14T01:19:24.032Z,62.15
2023-05-14T01:20:24.347Z,61.99
2023-05-14T01:21:24.058Z,61.97
2023-05-14T01:22:24.059Z,62.04
2023-05-14T01:23:24.059Z,61.55
2023-05-14T01:24:24.155Z,61.44
2023-05-14T01:25:24.171Z,61.61
2023-05-14T01:26:24.201Z,61.43
2023-05-14T01:27:24.723Z,61.39
2023-05-14T01:28:24.255Z,61.45
2023-05-14T01:29:24.337Z,61.51
2023-05-14T01:30:24.677Z,61.58
2023-05-14T01:31:24.323Z,61.50
2023-05-14T01:32:24.343Z,61.85
2023-05-14T01:33:24.331Z,62.40
2023-05-14T01:34:24.332Z,62.14
2023-05-14T01:35:24.394Z,61.85
2023-05-14T01:36:24.370Z,61.60
2023-05-14T01:37:24.388Z,61.71
2023-05-14T01:38:24.416Z,61.54
2023-05-14T01:39:25.420Z,61.53
2023-05-14T01:40:24.816Z,61.84
2023-05-14T01:41:24.568Z,61.75
2023-05-14T01:42:24.599Z,61.72
2023-05-14T01:43:24.668Z,61.47
2023-05-14T01:44:24.695Z,61.46
2023-05-14T01:45:24.738Z,61.33
2023-05-14T01:46:24.722Z,61.36
2023-05-14T01:47:24.799Z,61.54
2023-05-14T01:48:24.780Z,61.63
2023-05-14T01:49:24.847Z,61.72
2023-05-14T01:50:25.044Z,61.39
2023-05-14T01:51:24.894Z,61.53
2023-05-14T01:52:24.933Z,61.46
2023-05-14T01:53:24.915Z,61.77
2023-05-14T01:54:24.944Z,61.53
2023-05-14T01:55:24.985Z,61.41
2023-05-14T01:56:25.000Z,61.47
2023-05-14T01:57:25.076Z,61.38
2023-05-14T01:58:25.073Z,61.25
2023-05-14T01:59:25.105Z,61.23
2023-05-14T02:00:25.369Z,61.20
2023-05-14T02:01:25.156Z,61.05
2023-05-14T02:02:25.203Z,61.64
2023-05-14T02:03:25.511Z,61.62
2023-05-14T02:04:25.174Z,61.90
2023-05-14T02:05:25.198Z,62.08
2023-05-14T02:06:25.222Z,62.05
2023-05-14T02:07:25.272Z,61.93
2023-05-14T02:08:25.305Z,61.91
2023-05-14T02:09:25.429Z,61.79
2023-05-14T02:10:25.585Z,61.93
2023-05-14T02:11:25.445Z,61.85
2023-05-14T02:12:25.490Z,61.69
2023-05-14T02:13:25.514Z,61.46
2023-05-14T02:14:26.292Z,61.45
2023-05-14T02:15:26.001Z,61.32
2023-05-14T02:16:25.825Z,61.40
2023-05-14T02:17:25.754Z,61.30
2023-05-14T02:18:25.858Z,61.27
2023-05-14T02:19:25.760Z,61.10
2023-05-14T02:20:25.964Z,61.35
2023-05-14T02:21:25.772Z,61.22
2023-05-14T02:22:25.768Z,61.31
2023-05-14T02:23:37.949Z,61.61
2023-05-14T02:24:27.608Z,61.76
2023-05-14T02:25:25.841Z,61.69
2023-05-14T02:26:25.813Z,62.18
2023-05-14T02:27:25.772Z,61.73
2023-05-14T02:28:25.782Z,61.53
2023-05-14T02:29:25.746Z,61.54
2023-05-14T02:30:25.900Z,61.49
2023-05-14T02:31:25.819Z,61.75
2023-05-14T02:32:25.788Z,61.74
2023-05-14T02:33:25.800Z,61.84
2023-05-14T02:34:25.794Z,61.77
2023-05-14T02:35:25.852Z,62.04
2023-05-14T02:36:25.902Z,62.15
2023-05-14T02:37:25.918Z,62.35
2023-05-14T02:38:25.984Z,62.68
2023-05-14T02:39:26.017Z,62.76
2023-05-14T02:40:26.171Z,62.25
2023-05-14T02:41:26.036Z,62.31
2023-05-14T02:42:26.107Z,62.39
2023-05-14T02:43:26.145Z,62.77
2023-05-14T02:44:26.145Z,62.86
2023-05-14T02:45:26.143Z,62.99
2023-05-14T02:46:26.136Z,62.82
2023-05-14T02:47:26.214Z,62.71
2023-05-14T02:48:26.207Z,62.57
2023-05-14T02:49:26.282Z,62.32
2023-05-14T02:50:26.424Z,62.01
2023-05-14T02:51:26.303Z,61.70
2023-05-14T02:52:26.386Z,61.62
2023-05-14T02:53:26.409Z,61.38
2023-05-14T02:54:26.506Z,61.23
2023-05-14T02:55:26.624Z,61.51
2023-05-14T02:56:26.586Z,61.52
2023-05-14T02:57:26.618Z,61.35
2023-05-14T02:58:28.450Z,61.17
2023-05-14T02:59:26.731Z,61.12
2023-05-14T03:00:26.819Z,60.92
2023-05-14T03:01:26.868Z,60.88
2023-05-14T03:02:26.967Z,60.62
2023-05-14T03:03:26.910Z,60.40
2023-05-14T03:04:26.923Z,60.67
2023-05-14T03:05:26.991Z,61.04
2023-05-14T03:06:27.094Z,61.06
2023-05-14T03:07:27.073Z,61.06
2023-05-14T03:08:27.137Z,60.84
2023-05-14T03:09:27.184Z,61.17
2023-05-14T03:10:27.264Z,61.47
2023-05-14T03:11:34.888Z,61.37
2023-05-14T03:12:27.331Z,61.54
2023-05-14T03:13:27.236Z,61.49
2023-05-14T03:14:27.261Z,61.29
2023-05-14T03:15:27.234Z,61.84
2023-05-14T03:16:27.285Z,62.22
2023-05-14T03:17:27.235Z,62.00
2023-05-14T03:18:27.234Z,61.76
2023-05-14T03:19:27.204Z,61.64
2023-05-14T03:20:27.210Z,61.85
2023-05-14T03:21:27.163Z,61.56
2023-05-14T03:22:27.164Z,61.71
2023-05-14T03:23:27.181Z,62.30
2023-05-14T03:24:27.219Z,62.70
2023-05-14T03:25:27.183Z,62.85
2023-05-14T03:26:27.226Z,62.80
2023-05-14T03:27:27.260Z,62.66
2023-05-14T03:28:27.294Z,63.01
2023-05-14T03:29:27.388Z,62.34
2023-05-14T03:30:27.448Z,62.06
2023-05-14T03:31:27.517Z,62.00
2023-05-14T03:32:27.490Z,61.93
2023-05-14T03:33:27.482Z,61.76
2023-05-14T03:34:27.526Z,61.52
2023-05-14T03:35:27.545Z,61.38
2023-05-14T03:36:27.536Z,61.27
2023-05-14T03:37:27.592Z,61.12
2023-05-14T03:38:27.619Z,61.15
2023-05-14T03:39:27.651Z,61.49
2023-05-14T03:40:27.631Z,62.24
2023-05-14T03:41:27.676Z,62.27
2023-05-14T03:42:27.727Z,62.09
2023-05-14T03:43:27.744Z,62.07
2023-05-14T03:44:27.788Z,61.90
2023-05-14T03:45:27.834Z,61.58
2023-05-14T03:46:27.786Z,61.34
2023-05-14T03:47:27.855Z,61.12
2023-05-14T03:48:28.109Z,61.41
2023-05-14T03:49:27.980Z,61.04
2023-05-14T03:50:28.009Z,61.33
2023-05-14T03:51:28.057Z,61.36
2023-05-14T03:52:28.137Z,61.21
2023-05-14T03:53:28.167Z,61.06
2023-05-14T03:54:28.230Z,60.89
2023-05-14T03:55:28.263Z,60.92
2023-05-14T03:56:28.344Z,61.87
2023-05-14T03:57:28.370Z,61.89
2023-05-14T03:58:28.398Z,61.73
2023-05-14T03:59:28.424Z,61.49
2023-05-14T04:00:36.046Z,61.49
2023-05-14T04:01:28.455Z,61.53
2023-05-14T04:02:28.528Z,61.58
2023-05-14T04:03:28.546Z,61.70
2023-05-14T04:04:28.549Z,61.73
2023-05-14T04:05:28.419Z,62.22
2023-05-14T04:06:28.412Z,62.80
2023-05-14T04:07:28.411Z,63.31
2023-05-14T04:08:28.402Z,63.76
2023-05-14T04:09:28.380Z,63.95
2023-05-14T04:10:28.387Z,63.83
2023-05-14T04:11:28.381Z,63.89
2023-05-14T04:12:28.356Z,64.12
2023-05-14T04:13:28.363Z,63.91
2023-05-14T04:14:28.417Z,63.23
2023-05-14T04:15:28.514Z,62.91
2023-05-14T04:16:28.960Z,62.79
2023-05-14T04:17:28.654Z,62.83
2023-05-14T04:18:28.673Z,62.76
2023-05-14T04:19:29.067Z,62.89
2023-05-14T04:20:28.718Z,62.47
2023-05-14T04:21:28.809Z,62.33
2023-05-14T04:22:28.782Z,62.18
2023-05-14T04:23:28.839Z,62.11
2023-05-14T04:24:28.851Z,61.69
2023-05-14T04:25:28.891Z,60.96
2023-05-14T04:26:28.972Z,61.62
2023-05-14T04:27:29.025Z,62.10
2023-05-14T04:28:29.136Z,61.85
2023-05-14T04:29:29.149Z,61.65
2023-05-14T04:30:29.143Z,61.46
2023-05-14T04:31:29.145Z,61.55
2023-05-14T04:32:29.173Z,61.56
2023-05-14T04:33:29.240Z,61.44
2023-05-14T04:34:29.215Z,61.34
2023-05-14T04:35:29.238Z,61.06
2023-05-14T04:36:29.384Z,60.73
2023-05-14T04:37:29.235Z,60.46
2023-05-14T04:38:29.281Z,59.56
2023-05-14T04:39:29.305Z,59.65
2023-05-14T04:40:29.268Z,58.86
2023-05-14T04:41:29.295Z,58.40
2023-05-14T04:42:29.365Z,57.72
2023-05-14T04:43:29.379Z,57.73
2023-05-14T04:44:29.385Z,58.07
2023-05-14T04:45:29.437Z,58.53
2023-05-14T04:46:29.685Z,59.15
2023-05-14T04:47:29.649Z,59.40
2023-05-14T04:48:29.621Z,60.09
2023-05-14T04:49:29.677Z,60.43
2023-05-14T04:50:29.693Z,60.66
2023-05-14T04:51:29.734Z,60.51
2023-05-14T04:52:29.697Z,60.23
2023-05-14T04:53:29.747Z,60.07
2023-05-14T04:54:29.853Z,60.01
2023-05-14T04:55:29.809Z,60.09
2023-05-14T04:56:29.886Z,59.95
2023-05-14T04:57:29.965Z,60.15
2023-05-14T04:58:30.783Z,60.47
2023-05-14T04:59:30.298Z,60.94
2023-05-14T05:00:30.002Z,61.15
2023-05-14T05:01:30.036Z,61.38
2023-05-14T05:02:30.053Z,61.79
2023-05-14T05:03:30.120Z,61.68
2023-05-14T05:04:30.147Z,60.93
2023-05-14T05:05:30.200Z,60.72
2023-05-14T05:06:30.243Z,60.57
2023-05-14T05:07:30.253Z,60.37
2023-05-14T05:08:30.272Z,60.19
2023-05-14T05:09:30.282Z,60.35
2023-05-14T05:10:30.346Z,60.26
2023-05-14T05:11:30.375Z,60.27
2023-05-14T05:12:30.385Z,60.70
2023-05-14T05:13:30.360Z,60.89
2023-05-14T05:14:30.528Z,60.63
2023-05-14T05:15:30.395Z,60.57
2023-05-14T05:16:30.451Z,60.26
2023-05-14T05:17:30.555Z,60.17
2023-05-14T05:18:30.612Z,60.83
2023-05-14T05:19:42.410Z,61.09
2023-05-14T05:20:31.590Z,60.81
2023-05-14T05:21:30.621Z,61.00
2023-05-14T05:22:30.572Z,61.15
2023-05-14T05:23:30.585Z,61.07
2023-05-14T05:24:30.591Z,61.20
2023-05-14T05:25:30.558Z,60.80
2023-05-14T05:26:30.549Z,60.66
2023-05-14T05:27:30.902Z,60.47
2023-05-14T05:28:30.575Z,60.42
2023-05-14T05:29:30.617Z,60.49
2023-05-14T05:30:30.681Z,61.32
2023-05-14T05:31:30.754Z,61.26
2023-05-14T05:32:30.827Z,61.00
2023-05-14T05:33:30.846Z,60.77
2023-05-14T05:34:30.869Z,60.71
2023-05-14T05:35:30.862Z,60.54
2023-05-14T05:36:30.904Z,60.23
2023-05-14T05:37:30.972Z,60.10
2023-05-14T05:38:30.933Z,60.04
2023-05-14T05:39:31.011Z,59.87
2023-05-14T05:40:31.026Z,59.81
2023-05-14T05:41:31.108Z,59.75
2023-05-14T05:42:31.120Z,59.68
2023-05-14T05:43:31.221Z,59.63
2023-05-14T05:44:31.242Z,59.98
2023-05-14T05:45:31.213Z,60.64
2023-05-14T05:46:31.293Z,61.35
2023-05-14T05:47:31.386Z,62.05
2023-05-14T05:48:31.416Z,62.19
2023-05-14T05:49:31.465Z,62.25
2023-05-14T05:50:31.470Z,62.19
2023-05-14T05:51:31.526Z,61.82
2023-05-14T05:52:31.635Z,61.64
2023-05-14T05:53:31.634Z,61.23
2023-05-14T05:54:31.786Z,61.43
2023-05-14T05:55:31.774Z,61.33
2023-05-14T05:56:31.773Z,61.30
2023-05-14T05:57:31.820Z,61.01
2023-05-14T05:58:31.865Z,61.11
2023-05-14T05:59:31.856Z,60.72
2023-05-14T06:00:31.899Z,60.67
2023-05-14T06:01:31.936Z,60.50
2023-05-14T06:02:32.239Z,60.61
2023-05-14T06:03:32.001Z,60.77
2023-05-14T06:04:32.046Z,60.58
2023-05-14T06:05:32.057Z,60.25
2023-05-14T06:06:32.091Z,60.00
2023-05-14T06:07:32.101Z,60.39
2023-05-14T06:08:32.179Z,60.26
2023-05-14T06:09:32.155Z,60.11
2023-05-14T06:10:32.173Z,59.76
2023-05-14T06:11:32.219Z,59.90
2023-05-14T06:12:32.233Z,59.91
2023-05-14T06:13:32.253Z,59.68
2023-05-14T06:14:32.353Z,59.84
2023-05-14T06:15:32.366Z,59.96
2023-05-14T06:16:32.495Z,59.64
2023-05-14T06:17:32.512Z,59.42
2023-05-14T06:18:32.540Z,59.10
2023-05-14T06:19:32.572Z,58.97
2023-05-14T06:20:32.601Z,59.11
2023-05-14T06:21:32.642Z,59.26
2023-05-14T06:22:32.637Z,59.03
2023-05-14T06:23:32.686Z,59.11
2023-05-14T06:24:32.750Z,58.53
2023-05-14T06:25:32.748Z,58.24
2023-05-14T06:26:32.798Z,58.12
2023-05-14T06:27:32.861Z,57.98
2023-05-14T06:28:32.909Z,58.60
2023-05-14T06:29:32.972Z,59.71
2023-05-14T06:30:33.035Z,59.50
2023-05-14T06:31:33.098Z,59.00
2023-05-14T06:32:33.134Z,58.47
2023-05-14T06:33:33.085Z,58.16
2023-05-14T06:34:33.100Z,57.93
2023-05-14T06:35:33.091Z,57.80
2023-05-14T06:36:33.111Z,57.55
2023-05-14T06:37:33.164Z,57.97
2023-05-14T06:38:33.200Z,58.76
2023-05-14T06:39:33.309Z,59.81
2023-05-14T06:40:33.244Z,60.02
2023-05-14T06:41:33.425Z,60.04
2023-05-14T06:42:33.347Z,59.90
2023-05-14T06:43:33.429Z,59.89
2023-05-14T06:44:33.470Z,60.21
2023-05-14T06:45:33.498Z,59.88
2023-05-14T06:46:33.499Z,59.56
2023-05-14T06:47:33.617Z,59.06
2023-05-14T06:48:33.563Z,59.12
2023-05-14T06:49:33.619Z,58.95
2023-05-14T06:50:33.591Z,58.66
2023-05-14T06:51:33.575Z,57.96
2023-05-14T06:52:33.574Z,58.55
2023-05-14T06:53:33.583Z,59.25
2023-05-14T06:54:33.600Z,58.92
2023-05-14T06:55:33.633Z,58.13
2023-05-14T06:56:33.659Z,57.55
2023-05-14T06:57:33.630Z,57.05
2023-05-14T06:58:33.671Z,56.67
2023-05-14T06:59:33.721Z,56.36
2023-05-14T07:00:33.729Z,56.02
2023-05-14T07:01:33.826Z,55.70
2023-05-14T07:02:33.934Z,55.31
2023-05-14T07:03:33.917Z,55.24
2023-05-14T07:04:33.883Z,55.65
2023-05-14T07:05:33.849Z,55.80
2023-05-14T07:06:33.832Z,55.74
2023-05-14T07:07:33.908Z,55.40
2023-05-14T07:08:33.889Z,55.11
2023-05-14T07:09:33.957Z,55.04
2023-05-14T07:10:33.947Z,55.05
2023-05-14T07:11:33.934Z,54.72
2023-05-14T07:12:33.954Z,54.42
2023-05-14T07:13:33.980Z,54.02
2023-05-14T07:14:34.048Z,53.87
2023-05-14T07:15:34.003Z,53.63
2023-05-14T07:16:34.129Z,53.27
2023-05-14T07:17:34.087Z,52.96
2023-05-14T07:18:34.104Z,53.54
2023-05-14T07:19:34.132Z,53.98
2023-05-14T07:20:34.120Z,54.90
2023-05-14T07:21:34.205Z,55.36
2023-05-14T07:22:34.269Z,55.74
2023-05-14T07:23:34.357Z,56.26
2023-05-14T07:24:34.380Z,55.81
2023-05-14T07:25:34.444Z,54.94
2023-05-14T07:26:34.484Z,54.45
2023-05-14T07:27:34.548Z,54.08
2023-05-14T07:28:34.545Z,53.67
2023-05-14T07:29:34.667Z,53.60
2023-05-14T07:30:34.687Z,54.32
2023-05-14T07:31:34.821Z,54.43
2023-05-14T07:32:34.808Z,53.98
2023-05-14T07:33:34.732Z,54.34
2023-05-14T07:34:34.834Z,54.54
2023-05-14T07:35:34.865Z,55.09
2023-05-14T07:36:35.796Z,54.42
2023-05-14T07:37:34.886Z,53.94
2023-05-14T07:38:34.876Z,53.29
2023-05-14T07:39:34.928Z,52.75
2023-05-14T07:40:35.008Z,52.53
2023-05-14T07:41:35.065Z,53.32
2023-05-14T07:42:36.931Z,53.74
2023-05-14T07:43:35.179Z,53.63
2023-05-14T07:44:35.128Z,53.70
2023-05-14T07:45:35.134Z,54.16
2023-05-14T07:46:35.155Z,53.66
2023-05-14T07:47:35.235Z,53.61
2023-05-14T07:48:35.204Z,53.11
2023-05-14T07:49:35.306Z,52.83
2023-05-14T07:50:35.247Z,53.07
2023-05-14T07:51:35.278Z,53.71
2023-05-14T07:52:35.286Z,54.17
2023-05-14T07:53:35.271Z,53.66
2023-05-14T07:54:35.294Z,53.25
2023-05-14T07:55:35.382Z,53.78
2023-05-14T07:56:35.305Z,54.18
2023-05-14T07:57:35.296Z,54.25
2023-05-14T07:58:35.428Z,53.56
2023-05-14T07:59:35.539Z,52.85
2023-05-14T08:00:35.550Z,52.03
2023-05-14T08:01:37.108Z,51.48
2023-05-14T08:02:35.672Z,51.12
2023-05-14T08:03:35.636Z,51.75
2023-05-14T08:04:35.637Z,51.55
2023-05-14T08:05:35.550Z,51.53
2023-05-14T08:06:35.561Z,50.97
2023-05-14T08:07:35.567Z,50.86
2023-05-14T08:08:35.552Z,50.57
2023-05-14T08:09:35.563Z,49.99
2023-05-14T08:10:35.557Z,49.38
2023-05-14T08:11:35.504Z,49.22
2023-05-14T08:12:35.506Z,48.83
2023-05-14T08:13:35.469Z,48.92
2023-05-14T08:14:35.593Z,49.30
2023-05-14T08:15:35.464Z,50.14
2023-05-14T08:16:35.511Z,50.20
2023-05-14T08:17:35.482Z,49.96
2023-05-14T08:18:35.438Z,49.79
2023-05-14T08:19:35.460Z,49.26
2023-05-14T08:20:35.467Z,49.84
2023-05-14T08:21:35.452Z,50.04
2023-05-14T08:22:35.436Z,49.26
2023-05-14T08:23:35.489Z,48.91
2023-05-14T08:24:35.465Z,49.98
2023-05-14T08:25:35.417Z,49.75
2023-05-14T08:26:35.415Z,49.81
2023-05-14T08:27:35.437Z,50.17
2023-05-14T08:28:35.400Z,49.68
2023-05-14T08:29:35.432Z,49.33
2023-05-14T08:30:35.415Z,48.85
2023-05-14T08:31:35.427Z,48.36
2023-05-14T08:32:35.429Z,48.70
2023-05-14T08:33:35.381Z,47.62
2023-05-14T08:34:35.371Z,48.11
2023-05-14T08:35:35.357Z,48.55
2023-05-14T08:36:35.367Z,48.50
2023-05-14T08:37:35.303Z,49.06
2023-05-14T08:38:35.342Z,48.58
2023-05-14T08:39:35.357Z,48.03
2023-05-14T08:40:35.304Z,47.57
2023-05-14T08:41:35.313Z,46.85
2023-05-14T08:42:35.307Z,47.18
2023-05-14T08:43:35.302Z,46.23
2023-05-14T08:44:35.358Z,45.63
2023-05-14T08:45:35.279Z,44.68
2023-05-14T08:46:35.326Z,44.34
2023-05-14T08:47:35.340Z,44.59
2023-05-14T08:48:35.666Z,45.09
2023-05-14T08:49:35.342Z,45.31
2023-05-14T08:50:35.253Z,44.67
2023-05-14T08:51:35.255Z,44.97
2023-05-14T08:52:35.245Z,44.85
2023-05-14T08:53:35.228Z,43.53
2023-05-14T08:54:35.247Z,43.04
2023-05-14T08:55:35.247Z,42.12
2023-05-14T08:56:35.172Z,41.74
2023-05-14T08:57:35.201Z,40.80
2023-05-14T08:58:35.290Z,40.65
2023-05-14T08:59:35.320Z,40.84
2023-05-14T09:00:35.384Z,40.49
2023-05-14T09:01:35.450Z,40.52
2023-05-14T09:02:35.457Z,40.86
2023-05-14T09:03:35.545Z,41.43
2023-05-14T09:04:35.525Z,41.74
2023-05-14T09:05:35.524Z,41.30
2023-05-14T09:06:35.524Z,41.10
2023-05-14T09:07:35.661Z,40.99
2023-05-14T09:08:35.602Z,41.09
2023-05-14T09:09:35.683Z,40.83
2023-05-14T09:10:35.656Z,40.78
2023-05-14T09:11:35.685Z,41.44
2023-05-14T09:12:36.768Z,41.63
2023-05-14T09:13:35.837Z,41.93
2023-05-14T09:14:35.846Z,40.81
2023-05-14T09:15:35.924Z,40.41
2023-05-14T09:16:35.991Z,40.28
2023-05-14T09:17:36.008Z,40.43
2023-05-14T09:18:36.039Z,41.03
2023-05-14T09:19:36.036Z,40.87
2023-05-14T09:20:36.060Z,40.40
2023-05-14T09:21:36.091Z,40.47
2023-05-14T09:22:36.105Z,40.49
2023-05-14T09:23:36.183Z,42.12
2023-05-14T09:24:36.192Z,41.45
2023-05-14T09:25:36.218Z,41.34
2023-05-14T09:26:36.274Z,41.32
2023-05-14T09:27:36.320Z,40.87
2023-05-14T09:28:36.358Z,39.60
2023-05-14T09:29:36.430Z,40.86
2023-05-14T09:30:36.434Z,40.90
2023-05-14T09:31:36.503Z,40.90
2023-05-14T09:32:36.515Z,40.78
2023-05-14T09:33:36.565Z,40.46
2023-05-14T09:34:36.584Z,40.25
2023-05-14T09:35:36.622Z,40.21
2023-05-14T09:36:36.656Z,40.36
2023-05-14T09:37:36.721Z,40.41
2023-05-14T09:38:36.734Z,40.52
2023-05-14T09:39:36.832Z,40.51
2023-05-14T09:40:36.791Z,41.50
2023-05-14T09:41:36.863Z,41.47
2023-05-14T09:42:36.884Z,41.30
2023-05-14T09:43:36.903Z,42.57
2023-05-14T09:44:36.960Z,42.69
2023-05-14T09:45:36.945Z,41.39
2023-05-14T09:46:37.015Z,40.54
2023-05-14T09:47:37.195Z,41.24
2023-05-14T09:48:37.211Z,42.00
2023-05-14T09:49:37.203Z,41.50
2023-05-14T09:50:37.190Z,42.32
2023-05-14T09:51:37.263Z,41.48
2023-05-14T09:52:37.371Z,41.11
2023-05-14T09:53:37.345Z,41.02
2023-05-14T09:54:37.420Z,40.82
2023-05-14T09:55:37.462Z,40.75
2023-05-14T09:56:37.527Z,41.41
2023-05-14T09:57:37.554Z,41.65
2023-05-14T09:58:37.581Z,41.55
2023-05-14T09:59:37.717Z,41.90
2023-05-14T10:00:37.733Z,41.69
2023-05-14T10:01:37.909Z,41.44
2023-05-14T10:02:38.204Z,41.41
2023-05-14T10:03:38.270Z,41.60
2023-05-14T10:04:38.015Z,41.12
2023-05-14T10:05:37.967Z,41.68
2023-05-14T10:06:38.006Z,42.39
2023-05-14T10:07:38.039Z,42.93
2023-05-14T10:08:38.068Z,43.49
2023-05-14T10:09:38.101Z,43.85
2023-05-14T10:10:38.138Z,42.64
2023-05-14T10:11:38.239Z,42.43
2023-05-14T10:12:38.244Z,41.85
2023-05-14T10:13:38.270Z,41.47
2023-05-14T10:14:38.362Z,41.47
2023-05-14T10:15:38.324Z,41.92
2023-05-14T10:16:38.484Z,42.02
2023-05-14T10:17:38.420Z,42.20
2023-05-14T10:18:38.430Z,42.00
2023-05-14T10:19:38.468Z,41.73
2023-05-14T10:20:38.490Z,42.29
2023-05-14T10:21:38.533Z,41.52
2023-05-14T10:22:38.551Z,41.29
2023-05-14T10:23:38.599Z,41.81
2023-05-14T10:24:38.613Z,42.07
2023-05-14T10:25:38.635Z,42.07
2023-05-14T10:26:38.671Z,42.95
2023-05-14T10:27:38.727Z,43.63
2023-05-14T10:28:38.788Z,43.66
2023-05-14T10:29:38.811Z,43.40
2023-05-14T10:30:38.820Z,43.01
2023-05-14T10:31:38.921Z,42.60
2023-05-14T10:32:38.892Z,41.47
2023-05-14T10:33:38.860Z,41.37
2023-05-14T10:34:38.981Z,41.30
2023-05-14T10:35:38.916Z,41.13
2023-05-14T10:36:38.996Z,41.03
2023-05-14T10:37:39.004Z,41.11
2023-05-14T10:38:39.087Z,41.64
2023-05-14T10:39:39.566Z,42.60
2023-05-14T10:40:39.077Z,42.78
2023-05-14T10:41:39.161Z,42.76
2023-05-14T10:42:39.183Z,42.35
2023-05-14T10:43:39.194Z,42.35
2023-05-14T10:44:39.262Z,42.27
2023-05-14T10:45:39.281Z,42.40
2023-05-14T10:46:39.369Z,41.61
2023-05-14T10:47:39.391Z,41.93
2023-05-14T10:48:39.339Z,41.75
2023-05-14T10:49:43.296Z,42.12
2023-05-14T10:50:39.433Z,42.60
2023-05-14T10:51:39.516Z,42.01
2023-05-14T10:52:39.428Z,41.56
2023-05-14T10:53:39.347Z,41.24
2023-05-14T10:54:39.346Z,41.81
2023-05-14T10:55:39.341Z,42.07
2023-05-14T10:56:39.329Z,42.47
2023-05-14T10:57:39.351Z,43.10
2023-05-14T10:58:39.308Z,43.04
2023-05-14T10:59:39.386Z,42.97
2023-05-14T11:00:39.300Z,43.31
2023-05-14T11:01:39.293Z,43.67
2023-05-14T11:02:39.376Z,42.61
2023-05-14T11:03:39.294Z,42.43
2023-05-14T11:04:39.309Z,42.45
2023-05-14T11:05:39.296Z,43.65
2023-05-14T11:06:39.271Z,42.55
2023-05-14T11:07:39.289Z,42.23
2023-05-14T11:08:39.319Z,42.21
2023-05-14T11:09:39.368Z,42.46
2023-05-14T11:10:39.457Z,42.68
2023-05-14T11:11:39.435Z,41.99
2023-05-14T11:12:39.452Z,42.12
2023-05-14T11:13:39.540Z,42.06
2023-05-14T11:14:39.532Z,41.96
2023-05-14T11:15:39.590Z,41.74
2023-05-14T11:16:39.669Z,42.26
2023-05-14T11:17:39.706Z,42.71
2023-05-14T11:18:39.737Z,42.31
2023-05-14T11:19:39.701Z,42.66
2023-05-14T11:20:39.747Z,42.67
2023-05-14T11:21:39.813Z,42.49
2023-05-14T11:22:39.794Z,42.02
2023-05-14T11:23:39.811Z,42.28
2023-05-14T11:24:39.869Z,41.97
2023-05-14T11:25:39.946Z,42.30
2023-05-14T11:26:39.954Z,42.92
2023-05-14T11:27:39.968Z,43.40
2023-05-14T11:28:40.016Z,43.51
2023-05-14T11:29:40.037Z,43.69
2023-05-14T11:30:40.059Z,43.07
2023-05-14T11:31:40.062Z,43.51
2023-05-14T11:32:40.118Z,44.66
2023-05-14T11:33:40.148Z,44.31
2023-05-14T11:34:40.086Z,44.11
2023-05-14T11:35:40.238Z,43.66
2023-05-14T11:36:40.171Z,44.33
2023-05-14T11:37:40.208Z,43.96
2023-05-14T11:38:40.248Z,43.20
2023-05-14T11:39:40.280Z,42.78
2023-05-14T11:40:40.292Z,42.28
2023-05-14T11:41:40.354Z,42.39
2023-05-14T11:42:40.397Z,43.13
2023-05-14T11:43:40.374Z,42.62
2023-05-14T11:44:40.423Z,42.33
2023-05-14T11:45:40.535Z,42.31
2023-05-14T11:46:40.598Z,42.27
2023-05-14T11:47:40.593Z,43.21
2023-05-14T11:48:40.649Z,44.70
2023-05-14T11:49:40.713Z,44.01
2023-05-14T11:50:40.730Z,43.28
2023-05-14T11:51:40.778Z,43.45
2023-05-14T11:52:40.810Z,42.41
2023-05-14T11:53:40.789Z,42.48
2023-05-14T11:54:40.866Z,43.32
2023-05-14T11:55:40.906Z,43.51
2023-05-14T11:56:40.920Z,43.02
2023-05-14T11:57:40.978Z,42.67
2023-05-14T11:58:40.991Z,43.30
2023-05-14T11:59:40.987Z,44.79
2023-05-14T12:00:41.047Z,45.68
2023-05-14T12:01:41.123Z,45.51
2023-05-14T12:02:41.236Z,45.25
2023-05-14T12:03:41.452Z,43.47
2023-05-14T12:04:41.263Z,44.42
2023-05-14T12:05:41.269Z,44.53
2023-05-14T12:06:41.391Z,45.55
2023-05-14T12:07:41.354Z,44.56
2023-05-14T12:08:41.365Z,44.12
2023-05-14T12:09:43.023Z,44.52
2023-05-14T12:10:41.408Z,44.75
2023-05-14T12:11:41.368Z,45.15
2023-05-14T12:12:41.387Z,44.30
2023-05-14T12:13:41.353Z,44.60
2023-05-14T12:14:41.358Z,45.09
2023-05-14T12:15:41.394Z,44.97
2023-05-14T12:16:41.752Z,44.80
2023-05-14T12:17:41.428Z,45.38
2023-05-14T12:18:41.393Z,45.05
2023-05-14T12:19:41.336Z,44.74
2023-05-14T12:20:41.314Z,45.24
2023-05-14T12:21:41.298Z,45.70
2023-05-14T12:22:41.656Z,45.81
2023-05-14T12:23:41.307Z,45.55
2023-05-14T12:24:41.313Z,45.97
2023-05-14T12:25:41.270Z,46.99
2023-05-14T12:26:41.265Z,45.99
2023-05-14T12:27:41.278Z,45.68
2023-05-14T12:28:41.274Z,45.88
2023-05-14T12:29:41.234Z,45.42
2023-05-14T12:30:41.290Z,44.96
2023-05-14T12:31:41.362Z,44.12
2023-05-14T12:32:41.407Z,44.76
2023-05-14T12:33:41.199Z,45.16
2023-05-14T12:34:41.216Z,45.67
2023-05-14T12:35:41.227Z,45.14
2023-05-14T12:36:41.190Z,45.10
2023-05-14T12:37:41.195Z,45.08
2023-05-14T12:38:41.293Z,45.02
2023-05-14T12:39:41.228Z,45.56
2023-05-14T12:40:41.255Z,44.78
2023-05-14T12:41:41.267Z,45.48
2023-05-14T12:42:41.183Z,45.01
2023-05-14T12:43:41.194Z,44.95
2023-05-14T12:44:41.150Z,45.99
2023-05-14T12:45:41.171Z,45.22
2023-05-14T12:46:41.208Z,44.73
2023-05-14T12:47:41.218Z,45.73
2023-05-14T12:48:41.213Z,45.99
2023-05-14T12:49:41.141Z,46.23
2023-05-14T12:50:41.145Z,46.86
2023-05-14T12:51:41.152Z,47.67
2023-05-14T12:52:41.101Z,47.77